sensor_id;sensor_type;location;lat;lon;timestamp;P1;durP1;ratioP1;P2;durP2;ratioP2
23432;SDS011;41331;45.412;10.992;2022-10-16T00:01:40;58.05;;;31.35;;
23432;SDS011;41331;45.412;10.992;2022-10-16T00:04:08;47.58;;;30.10;;
23432;SDS011;41331;45.412;10.992;2022-10-16T00:06:35;51.80;;;30.95;;
23432;SDS011;41331;45.412;10.992;2022-10-16T00:09:03;50.72;;;30.60;;
23432;SDS011;41331;45.412;10.992;2022-10-16T00:11:31;51.38;;;30.23;;
23432;SDS011;41331;45.412;10.992;2022-10-16T00:14:01;56.97;;;30.90;;
23432;SDS011;41331;45.412;10.992;2022-10-16T00:16:29;53.42;;;29.67;;
23432;SDS011;41331;45.412;10.992;2022-10-16T00:19:00;54.75;;;30.67;;
23432;SDS011;41331;45.412;10.992;2022-10-16T00:21:28;53.05;;;32.13;;
23432;SDS011;41331;45.412;10.992;2022-10-16T00:24:15;49.28;;;30.05;;
23432;SDS011;41331;45.412;10.992;2022-10-16T00:26:42;49.67;;;30.00;;
23432;SDS011;41331;45.412;10.992;2022-10-16T00:29:10;53.92;;;29.90;;
23432;SDS011;41331;45.412;10.992;2022-10-16T00:31:38;50.10;;;30.00;;
23432;SDS011;41331;45.412;10.992;2022-10-16T00:34:05;51.92;;;29.52;;
23432;SDS011;41331;45.412;10.992;2022-10-16T00:36:32;51.75;;;30.45;;
23432;SDS011;41331;45.412;10.992;2022-10-16T00:39:01;54.90;;;32.03;;
23432;SDS011;41331;45.412;10.992;2022-10-16T00:41:29;51.08;;;31.00;;
23432;SDS011;41331;45.412;10.992;2022-10-16T00:43:59;49.67;;;29.55;;
23432;SDS011;41331;45.412;10.992;2022-10-16T00:49:02;53.97;;;30.42;;
23432;SDS011;41331;45.412;10.992;2022-10-16T00:54:03;51.00;;;30.23;;
23432;SDS011;41331;45.412;10.992;2022-10-16T00:56:36;54.03;;;29.77;;
23432;SDS011;41331;45.412;10.992;2022-10-16T00:59:04;48.33;;;29.85;;
23432;SDS011;41331;45.412;10.992;2022-10-16T01:01:41;53.50;;;29.65;;
23432;SDS011;41331;45.412;10.992;2022-10-16T01:04:08;48.38;;;30.13;;
23432;SDS011;41331;45.412;10.992;2022-10-16T01:06:56;55.40;;;30.77;;
23432;SDS011;41331;45.412;10.992;2022-10-16T01:12:41;51.25;;;30.92;;
23432;SDS011;41331;45.412;10.992;2022-10-16T01:15:17;53.65;;;29.67;;
23432;SDS011;41331;45.412;10.992;2022-10-16T01:18:05;55.95;;;30.55;;
23432;SDS011;41331;45.412;10.992;2022-10-16T01:20:40;54.05;;;29.25;;
23432;SDS011;41331;45.412;10.992;2022-10-16T01:29:02;55.22;;;29.15;;
23432;SDS011;41331;45.412;10.992;2022-10-16T01:31:36;52.22;;;30.75;;
23432;SDS011;41331;45.412;10.992;2022-10-16T01:36:42;49.65;;;29.45;;
23432;SDS011;41331;45.412;10.992;2022-10-16T01:39:15;49.15;;;29.23;;
23432;SDS011;41331;45.412;10.992;2022-10-16T01:41:48;55.08;;;29.55;;
23432;SDS011;41331;45.412;10.992;2022-10-16T01:44:22;56.15;;;30.60;;
23432;SDS011;41331;45.412;10.992;2022-10-16T01:46:57;52.42;;;30.10;;
23432;SDS011;41331;45.412;10.992;2022-10-16T01:49:25;51.88;;;29.55;;
23432;SDS011;41331;45.412;10.992;2022-10-16T01:51:55;49.47;;;30.00;;
23432;SDS011;41331;45.412;10.992;2022-10-16T01:54:30;52.08;;;30.25;;
23432;SDS011;41331;45.412;10.992;2022-10-16T01:57:01;48.83;;;29.05;;
23432;SDS011;41331;45.412;10.992;2022-10-16T01:59:35;51.25;;;28.80;;
23432;SDS011;41331;45.412;10.992;2022-10-16T02:02:06;50.00;;;28.95;;
23432;SDS011;41331;45.412;10.992;2022-10-16T02:04:37;49.50;;;27.95;;
23432;SDS011;41331;45.412;10.992;2022-10-16T02:07:07;52.67;;;29.33;;
23432;SDS011;41331;45.412;10.992;2022-10-16T02:09:35;47.65;;;29.35;;
23432;SDS011;41331;45.412;10.992;2022-10-16T02:12:06;47.03;;;28.38;;
23432;SDS011;41331;45.412;10.992;2022-10-16T02:14:43;47.17;;;28.42;;
23432;SDS011;41331;45.412;10.992;2022-10-16T02:17:12;50.33;;;29.35;;
23432;SDS011;41331;45.412;10.992;2022-10-16T02:19:42;49.65;;;29.27;;
23432;SDS011;41331;45.412;10.992;2022-10-16T02:22:28;49.72;;;29.67;;
23432;SDS011;41331;45.412;10.992;2022-10-16T02:25:42;49.50;;;29.33;;
23432;SDS011;41331;45.412;10.992;2022-10-16T02:31:02;48.47;;;29.48;;
23432;SDS011;41331;45.412;10.992;2022-10-16T02:33:31;50.60;;;28.25;;
23432;SDS011;41331;45.412;10.992;2022-10-16T02:36:01;53.83;;;29.13;;
23432;SDS011;41331;45.412;10.992;2022-10-16T02:38:29;51.00;;;29.23;;
23432;SDS011;41331;45.412;10.992;2022-10-16T02:40:57;47.90;;;28.85;;
23432;SDS011;41331;45.412;10.992;2022-10-16T02:43:25;56.72;;;30.52;;
23432;SDS011;41331;45.412;10.992;2022-10-16T02:45:53;48.55;;;29.08;;
23432;SDS011;41331;45.412;10.992;2022-10-16T02:48:23;48.80;;;28.58;;
23432;SDS011;41331;45.412;10.992;2022-10-16T02:50:50;49.22;;;29.73;;
23432;SDS011;41331;45.412;10.992;2022-10-16T02:53:18;58.00;;;31.02;;
23432;SDS011;41331;45.412;10.992;2022-10-16T02:55:46;52.28;;;29.80;;
23432;SDS011;41331;45.412;10.992;2022-10-16T02:58:13;54.88;;;30.25;;
23432;SDS011;41331;45.412;10.992;2022-10-16T03:00:41;50.95;;;30.40;;
23432;SDS011;41331;45.412;10.992;2022-10-16T03:03:09;52.47;;;29.48;;
23432;SDS011;41331;45.412;10.992;2022-10-16T03:05:37;51.85;;;30.23;;
23432;SDS011;41331;45.412;10.992;2022-10-16T03:08:04;58.60;;;29.38;;
23432;SDS011;41331;45.412;10.992;2022-10-16T03:10:31;50.55;;;30.10;;
23432;SDS011;41331;45.412;10.992;2022-10-16T03:12:59;52.85;;;30.67;;
23432;SDS011;41331;45.412;10.992;2022-10-16T03:15:26;50.45;;;29.80;;
23432;SDS011;41331;45.412;10.992;2022-10-16T03:17:59;49.92;;;29.25;;
23432;SDS011;41331;45.412;10.992;2022-10-16T03:20:27;54.10;;;30.43;;
23432;SDS011;41331;45.412;10.992;2022-10-16T03:22:54;50.55;;;30.20;;
23432;SDS011;41331;45.412;10.992;2022-10-16T03:25:22;50.22;;;28.83;;
23432;SDS011;41331;45.412;10.992;2022-10-16T03:27:49;56.58;;;30.92;;
23432;SDS011;41331;45.412;10.992;2022-10-16T03:30:16;52.65;;;30.17;;
23432;SDS011;41331;45.412;10.992;2022-10-16T03:32:44;49.75;;;29.77;;
23432;SDS011;41331;45.412;10.992;2022-10-16T03:35:12;56.33;;;30.30;;
23432;SDS011;41331;45.412;10.992;2022-10-16T03:37:42;50.30;;;30.10;;
23432;SDS011;41331;45.412;10.992;2022-10-16T03:40:09;53.17;;;29.85;;
23432;SDS011;41331;45.412;10.992;2022-10-16T03:42:37;50.67;;;30.10;;
23432;SDS011;41331;45.412;10.992;2022-10-16T03:45:05;52.67;;;30.83;;
23432;SDS011;41331;45.412;10.992;2022-10-16T03:47:32;51.00;;;29.85;;
23432;SDS011;41331;45.412;10.992;2022-10-16T03:50:00;55.38;;;30.98;;
23432;SDS011;41331;45.412;10.992;2022-10-16T03:52:30;51.80;;;29.58;;
23432;SDS011;41331;45.412;10.992;2022-10-16T03:54:59;50.22;;;29.17;;
23432;SDS011;41331;45.412;10.992;2022-10-16T03:57:26;47.72;;;28.10;;
23432;SDS011;41331;45.412;10.992;2022-10-16T03:59:54;53.72;;;30.42;;
23432;SDS011;41331;45.412;10.992;2022-10-16T04:02:22;51.70;;;30.15;;
23432;SDS011;41331;45.412;10.992;2022-10-16T04:04:49;51.42;;;30.15;;
23432;SDS011;41331;45.412;10.992;2022-10-16T04:07:17;56.65;;;29.63;;
23432;SDS011;41331;45.412;10.992;2022-10-16T04:09:44;51.63;;;29.80;;
23432;SDS011;41331;45.412;10.992;2022-10-16T04:12:11;52.25;;;29.88;;
23432;SDS011;41331;45.412;10.992;2022-10-16T04:14:39;51.95;;;29.45;;
23432;SDS011;41331;45.412;10.992;2022-10-16T04:17:06;50.30;;;29.90;;
23432;SDS011;41331;45.412;10.992;2022-10-16T04:19:33;53.38;;;29.50;;
23432;SDS011;41331;45.412;10.992;2022-10-16T04:22:01;51.95;;;29.02;;
23432;SDS011;41331;45.412;10.992;2022-10-16T04:24:28;52.83;;;29.02;;
23432;SDS011;41331;45.412;10.992;2022-10-16T04:26:56;53.55;;;29.75;;
23432;SDS011;41331;45.412;10.992;2022-10-16T04:29:23;52.22;;;29.73;;
23432;SDS011;41331;45.412;10.992;2022-10-16T04:31:51;46.95;;;27.77;;
23432;SDS011;41331;45.412;10.992;2022-10-16T04:34:18;50.60;;;28.58;;
23432;SDS011;41331;45.412;10.992;2022-10-16T04:36:49;56.20;;;30.60;;
23432;SDS011;41331;45.412;10.992;2022-10-16T04:39:16;48.83;;;28.95;;
23432;SDS011;41331;45.412;10.992;2022-10-16T04:41:44;51.25;;;30.50;;
23432;SDS011;41331;45.412;10.992;2022-10-16T04:44:14;53.85;;;30.27;;
23432;SDS011;41331;45.412;10.992;2022-10-16T04:46:41;49.63;;;29.95;;
23432;SDS011;41331;45.412;10.992;2022-10-16T04:49:09;53.15;;;30.30;;
23432;SDS011;41331;45.412;10.992;2022-10-16T04:51:39;54.03;;;30.73;;
23432;SDS011;41331;45.412;10.992;2022-10-16T04:54:06;50.60;;;28.30;;
23432;SDS011;41331;45.412;10.992;2022-10-16T04:56:34;48.08;;;30.52;;
23432;SDS011;41331;45.412;10.992;2022-10-16T04:59:07;57.35;;;30.52;;
23432;SDS011;41331;45.412;10.992;2022-10-16T05:01:34;53.10;;;30.48;;
23432;SDS011;41331;45.412;10.992;2022-10-16T05:04:04;55.72;;;32.00;;
23432;SDS011;41331;45.412;10.992;2022-10-16T05:06:31;54.35;;;30.55;;
23432;SDS011;41331;45.412;10.992;2022-10-16T05:08:59;56.67;;;31.05;;
23432;SDS011;41331;45.412;10.992;2022-10-16T05:11:26;60.35;;;32.40;;
23432;SDS011;41331;45.412;10.992;2022-10-16T05:13:53;53.78;;;30.52;;
23432;SDS011;41331;45.412;10.992;2022-10-16T05:16:22;49.30;;;30.70;;
23432;SDS011;41331;45.412;10.992;2022-10-16T05:18:50;52.35;;;30.60;;
23432;SDS011;41331;45.412;10.992;2022-10-16T05:21:22;53.70;;;30.20;;
23432;SDS011;41331;45.412;10.992;2022-10-16T05:23:49;51.65;;;31.65;;
23432;SDS011;41331;45.412;10.992;2022-10-16T05:26:17;53.08;;;31.10;;
23432;SDS011;41331;45.412;10.992;2022-10-16T05:28:44;49.75;;;30.73;;
23432;SDS011;41331;45.412;10.992;2022-10-16T05:31:11;50.85;;;30.98;;
23432;SDS011;41331;45.412;10.992;2022-10-16T05:33:39;54.55;;;31.70;;
23432;SDS011;41331;45.412;10.992;2022-10-16T05:36:08;51.55;;;31.38;;
23432;SDS011;41331;45.412;10.992;2022-10-16T05:38:36;57.63;;;31.45;;
23432;SDS011;41331;45.412;10.992;2022-10-16T05:41:05;55.60;;;31.75;;
23432;SDS011;41331;45.412;10.992;2022-10-16T05:43:33;58.58;;;33.13;;
23432;SDS011;41331;45.412;10.992;2022-10-16T05:46:04;61.47;;;33.20;;
23432;SDS011;41331;45.412;10.992;2022-10-16T05:48:32;60.63;;;33.40;;
23432;SDS011;41331;45.412;10.992;2022-10-16T05:51:01;61.35;;;34.50;;
23432;SDS011;41331;45.412;10.992;2022-10-16T05:53:31;62.42;;;35.85;;
23432;SDS011;41331;45.412;10.992;2022-10-16T05:56:00;62.03;;;34.50;;
23432;SDS011;41331;45.412;10.992;2022-10-16T05:58:29;56.78;;;34.13;;
23432;SDS011;41331;45.412;10.992;2022-10-16T06:00:59;62.05;;;35.95;;
23432;SDS011;41331;45.412;10.992;2022-10-16T06:03:29;62.80;;;35.17;;
23432;SDS011;41331;45.412;10.992;2022-10-16T06:05:56;58.78;;;33.40;;
23432;SDS011;41331;45.412;10.992;2022-10-16T06:08:23;59.03;;;34.55;;
23432;SDS011;41331;45.412;10.992;2022-10-16T06:11:04;59.47;;;34.15;;
23432;SDS011;41331;45.412;10.992;2022-10-16T06:13:36;61.47;;;34.45;;
23432;SDS011;41331;45.412;10.992;2022-10-16T06:16:03;60.72;;;33.72;;
23432;SDS011;41331;45.412;10.992;2022-10-16T06:18:31;60.08;;;34.22;;
23432;SDS011;41331;45.412;10.992;2022-10-16T06:20:58;54.05;;;32.58;;
23432;SDS011;41331;45.412;10.992;2022-10-16T06:23:28;60.35;;;34.67;;
23432;SDS011;41331;45.412;10.992;2022-10-16T06:26:03;65.68;;;34.10;;
23432;SDS011;41331;45.412;10.992;2022-10-16T06:28:31;56.25;;;32.60;;
23432;SDS011;41331;45.412;10.992;2022-10-16T06:31:00;60.97;;;34.35;;
23432;SDS011;41331;45.412;10.992;2022-10-16T06:33:34;57.65;;;32.40;;
23432;SDS011;41331;45.412;10.992;2022-10-16T06:36:03;61.22;;;34.00;;
23432;SDS011;41331;45.412;10.992;2022-10-16T06:38:35;61.45;;;34.50;;
23432;SDS011;41331;45.412;10.992;2022-10-16T06:41:04;59.75;;;34.15;;
23432;SDS011;41331;45.412;10.992;2022-10-16T06:43:35;64.32;;;35.40;;
23432;SDS011;41331;45.412;10.992;2022-10-16T06:46:03;66.70;;;35.42;;
23432;SDS011;41331;45.412;10.992;2022-10-16T06:48:32;60.35;;;35.28;;
23432;SDS011;41331;45.412;10.992;2022-10-16T06:51:00;59.08;;;34.10;;
23432;SDS011;41331;45.412;10.992;2022-10-16T06:53:29;62.50;;;33.88;;
23432;SDS011;41331;45.412;10.992;2022-10-16T06:58:44;56.55;;;33.53;;
23432;SDS011;41331;45.412;10.992;2022-10-16T07:01:12;55.22;;;34.90;;
23432;SDS011;41331;45.412;10.992;2022-10-16T07:03:41;60.75;;;33.65;;
23432;SDS011;41331;45.412;10.992;2022-10-16T07:06:10;60.20;;;34.75;;
23432;SDS011;41331;45.412;10.992;2022-10-16T07:08:39;59.42;;;35.13;;
23432;SDS011;41331;45.412;10.992;2022-10-16T07:11:13;61.25;;;33.95;;
23432;SDS011;41331;45.412;10.992;2022-10-16T07:13:43;62.13;;;36.10;;
23432;SDS011;41331;45.412;10.992;2022-10-16T07:16:19;59.15;;;35.15;;
23432;SDS011;41331;45.412;10.992;2022-10-16T07:18:48;57.78;;;35.15;;
23432;SDS011;41331;45.412;10.992;2022-10-16T07:21:17;65.00;;;35.00;;
23432;SDS011;41331;45.412;10.992;2022-10-16T07:23:50;62.95;;;35.78;;
23432;SDS011;41331;45.412;10.992;2022-10-16T07:26:18;63.30;;;35.80;;
23432;SDS011;41331;45.412;10.992;2022-10-16T07:28:46;65.10;;;37.38;;
23432;SDS011;41331;45.412;10.992;2022-10-16T07:31:14;59.40;;;34.80;;
23432;SDS011;41331;45.412;10.992;2022-10-16T07:33:43;62.30;;;36.13;;
23432;SDS011;41331;45.412;10.992;2022-10-16T07:36:12;62.25;;;35.60;;
23432;SDS011;41331;45.412;10.992;2022-10-16T07:38:42;62.05;;;36.72;;
23432;SDS011;41331;45.412;10.992;2022-10-16T07:41:17;62.20;;;34.85;;
23432;SDS011;41331;45.412;10.992;2022-10-16T07:43:46;61.53;;;35.60;;
23432;SDS011;41331;45.412;10.992;2022-10-16T07:46:15;61.60;;;35.85;;
23432;SDS011;41331;45.412;10.992;2022-10-16T07:48:43;63.40;;;35.03;;
23432;SDS011;41331;45.412;10.992;2022-10-16T07:51:15;64.05;;;36.28;;
23432;SDS011;41331;45.412;10.992;2022-10-16T07:53:43;63.28;;;35.47;;
23432;SDS011;41331;45.412;10.992;2022-10-16T07:56:11;62.78;;;36.38;;
23432;SDS011;41331;45.412;10.992;2022-10-16T07:58:39;65.10;;;36.20;;
23432;SDS011;41331;45.412;10.992;2022-10-16T08:01:07;65.50;;;37.38;;
23432;SDS011;41331;45.412;10.992;2022-10-16T08:03:37;58.55;;;35.80;;
23432;SDS011;41331;45.412;10.992;2022-10-16T08:06:04;70.28;;;37.78;;
23432;SDS011;41331;45.412;10.992;2022-10-16T08:08:32;62.83;;;36.95;;
23432;SDS011;41331;45.412;10.992;2022-10-16T08:10:59;66.78;;;36.08;;
23432;SDS011;41331;45.412;10.992;2022-10-16T08:13:27;62.45;;;35.83;;
23432;SDS011;41331;45.412;10.992;2022-10-16T08:15:54;70.93;;;37.17;;
23432;SDS011;41331;45.412;10.992;2022-10-16T08:18:22;65.55;;;36.83;;
23432;SDS011;41331;45.412;10.992;2022-10-16T08:20:56;61.80;;;35.67;;
23432;SDS011;41331;45.412;10.992;2022-10-16T08:23:25;68.43;;;38.17;;
23432;SDS011;41331;45.412;10.992;2022-10-16T08:25:53;63.70;;;35.63;;
23432;SDS011;41331;45.412;10.992;2022-10-16T08:28:22;62.90;;;36.75;;
23432;SDS011;41331;45.412;10.992;2022-10-16T08:30:50;60.50;;;34.65;;
23432;SDS011;41331;45.412;10.992;2022-10-16T08:33:17;60.42;;;36.38;;
23432;SDS011;41331;45.412;10.992;2022-10-16T08:35:52;60.55;;;35.88;;
23432;SDS011;41331;45.412;10.992;2022-10-16T08:38:20;53.97;;;35.83;;
23432;SDS011;41331;45.412;10.992;2022-10-16T08:40:51;55.47;;;35.55;;
23432;SDS011;41331;45.412;10.992;2022-10-16T08:43:27;55.55;;;34.45;;
23432;SDS011;41331;45.412;10.992;2022-10-16T08:49:19;51.97;;;34.28;;
23432;SDS011;41331;45.412;10.992;2022-10-16T08:51:47;52.40;;;35.00;;
23432;SDS011;41331;45.412;10.992;2022-10-16T08:56:47;52.70;;;35.22;;
23432;SDS011;41331;45.412;10.992;2022-10-16T08:59:14;51.08;;;35.35;;
23432;SDS011;41331;45.412;10.992;2022-10-16T09:01:44;50.83;;;35.17;;
23432;SDS011;41331;45.412;10.992;2022-10-16T09:23:13;53.42;;;35.65;;
23432;SDS011;41331;45.412;10.992;2022-10-16T09:25:47;55.92;;;35.67;;
23432;SDS011;41331;45.412;10.992;2022-10-16T09:28:17;53.03;;;36.30;;
23432;SDS011;41331;45.412;10.992;2022-10-16T09:30:45;56.47;;;36.60;;
23432;SDS011;41331;45.412;10.992;2022-10-16T09:33:16;54.38;;;34.42;;
23432;SDS011;41331;45.412;10.992;2022-10-16T09:35:50;57.60;;;36.40;;
23432;SDS011;41331;45.412;10.992;2022-10-16T09:38:24;56.67;;;37.15;;
23432;SDS011;41331;45.412;10.992;2022-10-16T09:40:52;54.20;;;37.30;;
23432;SDS011;41331;45.412;10.992;2022-10-16T09:43:37;57.83;;;38.15;;
23432;SDS011;41331;45.412;10.992;2022-10-16T09:46:19;56.03;;;37.72;;
23432;SDS011;41331;45.412;10.992;2022-10-16T09:48:49;56.67;;;35.83;;
23432;SDS011;41331;45.412;10.992;2022-10-16T09:51:19;49.35;;;32.92;;
23432;SDS011;41331;45.412;10.992;2022-10-16T09:53:59;45.45;;;30.83;;
23432;SDS011;41331;45.412;10.992;2022-10-16T09:56:48;49.15;;;32.05;;
23432;SDS011;41331;45.412;10.992;2022-10-16T09:59:21;48.30;;;32.05;;
23432;SDS011;41331;45.412;10.992;2022-10-16T10:01:53;46.28;;;30.75;;
23432;SDS011;41331;45.412;10.992;2022-10-16T10:04:23;46.38;;;28.80;;
23432;SDS011;41331;45.412;10.992;2022-10-16T10:06:53;49.65;;;31.60;;
23432;SDS011;41331;45.412;10.992;2022-10-16T10:09:24;47.05;;;29.08;;
23432;SDS011;41331;45.412;10.992;2022-10-16T10:12:01;47.08;;;27.25;;
23432;SDS011;41331;45.412;10.992;2022-10-16T10:17:16;42.47;;;27.10;;
23432;SDS011;41331;45.412;10.992;2022-10-16T10:30:32;43.55;;;27.67;;
23432;SDS011;41331;45.412;10.992;2022-10-16T10:41:36;44.38;;;27.23;;
23432;SDS011;41331;45.412;10.992;2022-10-16T10:47:07;43.03;;;27.10;;
23432;SDS011;41331;45.412;10.992;2022-10-16T10:49:53;42.63;;;27.40;;
23432;SDS011;41331;45.412;10.992;2022-10-16T11:01:15;48.92;;;29.20;;
23432;SDS011;41331;45.412;10.992;2022-10-16T11:06:26;45.75;;;29.02;;
23432;SDS011;41331;45.412;10.992;2022-10-16T11:12:09;48.65;;;30.85;;
23432;SDS011;41331;45.412;10.992;2022-10-16T11:15:11;51.13;;;30.90;;
23432;SDS011;41331;45.412;10.992;2022-10-16T11:17:53;48.78;;;30.63;;
23432;SDS011;41331;45.412;10.992;2022-10-16T11:20:32;57.72;;;33.78;;
23432;SDS011;41331;45.412;10.992;2022-10-16T11:23:12;47.97;;;31.08;;
23432;SDS011;41331;45.412;10.992;2022-10-16T11:25:45;53.03;;;32.85;;
23432;SDS011;41331;45.412;10.992;2022-10-16T11:30:50;49.15;;;30.98;;
23432;SDS011;41331;45.412;10.992;2022-10-16T11:33:28;53.90;;;31.40;;
23432;SDS011;41331;45.412;10.992;2022-10-16T11:39:04;53.33;;;33.17;;
23432;SDS011;41331;45.412;10.992;2022-10-16T11:41:47;55.33;;;32.13;;
23432;SDS011;41331;45.412;10.992;2022-10-16T11:50:20;50.22;;;32.65;;
23432;SDS011;41331;45.412;10.992;2022-10-16T11:55:54;56.97;;;31.92;;
23432;SDS011;41331;45.412;10.992;2022-10-16T12:00:58;58.63;;;33.63;;
23432;SDS011;41331;45.412;10.992;2022-10-16T12:03:35;61.63;;;34.70;;
23432;SDS011;41331;45.412;10.992;2022-10-16T12:09:15;55.38;;;32.05;;
23432;SDS011;41331;45.412;10.992;2022-10-16T12:16:57;53.08;;;32.47;;
23432;SDS011;41331;45.412;10.992;2022-10-16T12:19:27;59.20;;;32.97;;
23432;SDS011;41331;45.412;10.992;2022-10-16T12:22:00;58.97;;;32.88;;
23432;SDS011;41331;45.412;10.992;2022-10-16T12:27:00;52.70;;;31.48;;
23432;SDS011;41331;45.412;10.992;2022-10-16T12:29:33;48.95;;;30.63;;
23432;SDS011;41331;45.412;10.992;2022-10-16T12:32:04;51.85;;;30.38;;
23432;SDS011;41331;45.412;10.992;2022-10-16T12:35:16;50.85;;;30.23;;
23432;SDS011;41331;45.412;10.992;2022-10-16T12:37:47;51.47;;;32.13;;
23432;SDS011;41331;45.412;10.992;2022-10-16T12:40:26;55.53;;;30.70;;
23432;SDS011;41331;45.412;10.992;2022-10-16T12:42:56;63.57;;;31.13;;
23432;SDS011;41331;45.412;10.992;2022-10-16T12:47:56;51.83;;;32.55;;
23432;SDS011;41331;45.412;10.992;2022-10-16T12:50:26;52.83;;;30.60;;
23432;SDS011;41331;45.412;10.992;2022-10-16T12:52:58;47.53;;;30.33;;
23432;SDS011;41331;45.412;10.992;2022-10-16T12:55:27;52.95;;;30.95;;
23432;SDS011;41331;45.412;10.992;2022-10-16T13:29:54;46.97;;;28.00;;
23432;SDS011;41331;45.412;10.992;2022-10-16T13:32:29;48.42;;;29.10;;
23432;SDS011;41331;45.412;10.992;2022-10-16T13:34:58;49.17;;;28.42;;
23432;SDS011;41331;45.412;10.992;2022-10-16T13:37:27;42.90;;;26.55;;
23432;SDS011;41331;45.412;10.992;2022-10-16T13:42:55;44.88;;;28.17;;
23432;SDS011;41331;45.412;10.992;2022-10-16T13:45:24;44.72;;;27.70;;
23432;SDS011;41331;45.412;10.992;2022-10-16T13:48:05;47.47;;;28.45;;
23432;SDS011;41331;45.412;10.992;2022-10-16T13:50:36;44.25;;;28.05;;
23432;SDS011;41331;45.412;10.992;2022-10-16T13:53:04;43.45;;;27.33;;
23432;SDS011;41331;45.412;10.992;2022-10-16T13:55:40;40.63;;;26.63;;
23432;SDS011;41331;45.412;10.992;2022-10-16T13:58:08;40.35;;;25.60;;
23432;SDS011;41331;45.412;10.992;2022-10-16T14:00:39;49.13;;;28.58;;
23432;SDS011;41331;45.412;10.992;2022-10-16T14:03:20;43.80;;;26.33;;
23432;SDS011;41331;45.412;10.992;2022-10-16T14:08:45;44.85;;;25.02;;
23432;SDS011;41331;45.412;10.992;2022-10-16T14:11:24;43.65;;;25.92;;
23432;SDS011;41331;45.412;10.992;2022-10-16T14:13:53;40.70;;;25.55;;
23432;SDS011;41331;45.412;10.992;2022-10-16T14:16:22;38.83;;;25.58;;
23432;SDS011;41331;45.412;10.992;2022-10-16T14:19:02;42.50;;;25.37;;
23432;SDS011;41331;45.412;10.992;2022-10-16T14:21:38;40.03;;;25.70;;
23432;SDS011;41331;45.412;10.992;2022-10-16T14:24:13;43.38;;;26.17;;
23432;SDS011;41331;45.412;10.992;2022-10-16T14:26:56;40.63;;;24.00;;
23432;SDS011;41331;45.412;10.992;2022-10-16T14:29:24;42.33;;;25.52;;
23432;SDS011;41331;45.412;10.992;2022-10-16T14:31:54;41.03;;;25.15;;
23432;SDS011;41331;45.412;10.992;2022-10-16T14:34:33;39.40;;;24.52;;
23432;SDS011;41331;45.412;10.992;2022-10-16T14:39:54;42.45;;;26.40;;
23432;SDS011;41331;45.412;10.992;2022-10-16T14:42:24;42.70;;;27.15;;
23432;SDS011;41331;45.412;10.992;2022-10-16T14:44:53;54.00;;;28.30;;
23432;SDS011;41331;45.412;10.992;2022-10-16T14:47:22;43.90;;;26.17;;
23432;SDS011;41331;45.412;10.992;2022-10-16T14:49:54;43.38;;;25.92;;
23432;SDS011;41331;45.412;10.992;2022-10-16T14:52:23;46.47;;;27.50;;
23432;SDS011;41331;45.412;10.992;2022-10-16T14:54:51;44.17;;;26.50;;
23432;SDS011;41331;45.412;10.992;2022-10-16T14:57:26;52.88;;;28.20;;
23432;SDS011;41331;45.412;10.992;2022-10-16T14:59:57;46.55;;;26.83;;
23432;SDS011;41331;45.412;10.992;2022-10-16T15:02:31;40.72;;;25.60;;
23432;SDS011;41331;45.412;10.992;2022-10-16T15:05:07;45.47;;;26.75;;
23432;SDS011;41331;45.412;10.992;2022-10-16T15:07:38;42.95;;;27.10;;
23432;SDS011;41331;45.412;10.992;2022-10-16T15:10:05;44.63;;;27.00;;
23432;SDS011;41331;45.412;10.992;2022-10-16T15:12:33;44.15;;;25.20;;
23432;SDS011;41331;45.412;10.992;2022-10-16T15:15:00;43.42;;;25.83;;
23432;SDS011;41331;45.412;10.992;2022-10-16T15:17:27;41.78;;;25.52;;
23432;SDS011;41331;45.412;10.992;2022-10-16T15:19:55;39.75;;;24.02;;
23432;SDS011;41331;45.412;10.992;2022-10-16T15:22:25;36.50;;;23.35;;
23432;SDS011;41331;45.412;10.992;2022-10-16T15:24:52;38.15;;;23.75;;
23432;SDS011;41331;45.412;10.992;2022-10-16T15:27:20;37.42;;;23.65;;
23432;SDS011;41331;45.412;10.992;2022-10-16T15:29:47;36.88;;;22.60;;
23432;SDS011;41331;45.412;10.992;2022-10-16T15:32:15;36.90;;;23.25;;
23432;SDS011;41331;45.412;10.992;2022-10-16T15:34:42;40.15;;;22.50;;
23432;SDS011;41331;45.412;10.992;2022-10-16T15:37:09;38.45;;;22.10;;
23432;SDS011;41331;45.412;10.992;2022-10-16T15:39:38;38.72;;;21.65;;
23432;SDS011;41331;45.412;10.992;2022-10-16T15:42:07;38.60;;;24.15;;
23432;SDS011;41331;45.412;10.992;2022-10-16T15:44:34;39.97;;;23.90;;
23432;SDS011;41331;45.412;10.992;2022-10-16T15:47:02;43.05;;;25.27;;
23432;SDS011;41331;45.412;10.992;2022-10-16T15:49:29;38.92;;;23.67;;
23432;SDS011;41331;45.412;10.992;2022-10-16T15:51:56;35.35;;;23.20;;
23432;SDS011;41331;45.412;10.992;2022-10-16T15:54:24;38.03;;;24.40;;
23432;SDS011;41331;45.412;10.992;2022-10-16T15:56:51;40.33;;;22.17;;
23432;SDS011;41331;45.412;10.992;2022-10-16T15:59:20;35.63;;;22.80;;
23432;SDS011;41331;45.412;10.992;2022-10-16T16:01:47;49.00;;;28.83;;
23432;SDS011;41331;45.412;10.992;2022-10-16T16:04:15;50.72;;;28.40;;
23432;SDS011;41331;45.412;10.992;2022-10-16T16:07:04;48.17;;;28.77;;
23432;SDS011;41331;45.412;10.992;2022-10-16T16:09:34;49.83;;;27.48;;
23432;SDS011;41331;45.412;10.992;2022-10-16T16:12:01;47.97;;;29.25;;
23432;SDS011;41331;45.412;10.992;2022-10-16T16:14:29;47.30;;;28.42;;
23432;SDS011;41331;45.412;10.992;2022-10-16T16:16:56;45.90;;;28.75;;
23432;SDS011;41331;45.412;10.992;2022-10-16T16:19:24;46.83;;;29.23;;
23432;SDS011;41331;45.412;10.992;2022-10-16T16:21:51;48.13;;;28.90;;
23432;SDS011;41331;45.412;10.992;2022-10-16T16:24:19;48.38;;;29.10;;
23432;SDS011;41331;45.412;10.992;2022-10-16T16:26:47;47.38;;;28.35;;
23432;SDS011;41331;45.412;10.992;2022-10-16T16:29:14;46.20;;;29.13;;
23432;SDS011;41331;45.412;10.992;2022-10-16T16:31:43;46.47;;;28.70;;
23432;SDS011;41331;45.412;10.992;2022-10-16T16:34:10;46.63;;;29.23;;
23432;SDS011;41331;45.412;10.992;2022-10-16T16:36:37;50.72;;;30.70;;
23432;SDS011;41331;45.412;10.992;2022-10-16T16:39:07;53.95;;;31.65;;
23432;SDS011;41331;45.412;10.992;2022-10-16T16:41:34;53.83;;;32.05;;
23432;SDS011;41331;45.412;10.992;2022-10-16T16:44:04;56.88;;;32.95;;
23432;SDS011;41331;45.412;10.992;2022-10-16T16:46:35;57.67;;;32.97;;
23432;SDS011;41331;45.412;10.992;2022-10-16T16:49:04;54.20;;;34.08;;
23432;SDS011;41331;45.412;10.992;2022-10-16T16:51:31;52.70;;;33.05;;
23432;SDS011;41331;45.412;10.992;2022-10-16T16:54:05;56.10;;;32.70;;
23432;SDS011;41331;45.412;10.992;2022-10-16T16:56:39;54.38;;;33.92;;
23432;SDS011;41331;45.412;10.992;2022-10-16T16:59:11;57.08;;;35.00;;
23432;SDS011;41331;45.412;10.992;2022-10-16T17:01:40;55.55;;;33.65;;
23432;SDS011;41331;45.412;10.992;2022-10-16T17:04:08;51.80;;;32.08;;
23432;SDS011;41331;45.412;10.992;2022-10-16T17:06:37;51.55;;;30.90;;